createdAt,value
2017-02-06T00:00:44.283Z,2.97
2017-02-06T00:01:29.412Z,2.95
2017-02-06T00:02:14.308Z,2.93
2017-02-06T00:03:15.307Z,2.87
2017-02-06T00:04:03.313Z,2.95
2017-02-06T00:04:44.701Z,2.95
2017-02-06T00:05:26.603Z,2.89
2017-02-06T00:06:07.964Z,2.92
2017-02-06T00:06:55.821Z,2.89
2017-02-06T00:07:53.986Z,2.89
2017-02-06T00:08:35.805Z,2.89
2017-02-06T00:09:23.797Z,2.92
2017-02-06T00:10:08.833Z,2.89
2017-02-06T00:10:51.796Z,2.95
2017-02-06T00:11:33.801Z,2.9
2017-02-06T00:12:18.053Z,2.9
2017-02-06T00:13:07.817Z,2.87
2017-02-06T00:13:48.286Z,2.87
2017-02-06T00:14:32.385Z,2.9
2017-02-06T00:15:14.540Z,2.92
2017-02-06T00:16:00.453Z,2.86
2017-02-06T00:16:44.813Z,2.92
2017-02-06T00:17:30.786Z,2.87
2017-02-06T00:18:12.041Z,2.82
2017-02-06T00:18:54.314Z,2.82
2017-02-06T00:19:35.491Z,2.92
2017-02-06T00:20:25.587Z,2.93
2017-02-06T00:21:10.981Z,2.89
2017-02-06T00:21:56.793Z,2.92
2017-02-06T00:22:43.879Z,2.87
2017-02-06T00:23:39.805Z,2.87
2017-02-06T00:25:55.077Z,2.9
2017-02-06T00:27:44.557Z,2.97
2017-02-06T00:28:34.325Z,2.9
2017-02-06T00:29:21.300Z,2.89
2017-02-06T00:30:02.392Z,2.93
2017-02-06T00:30:43.563Z,2.9
2017-02-06T00:31:26.397Z,2.89
2017-02-06T00:32:08.392Z,2.97
2017-02-06T00:32:51.494Z,2.89
2017-02-06T00:33:37.310Z,2.95
2017-02-06T00:34:18.605Z,2.97
2017-02-06T00:35:02.808Z,2.89
2017-02-06T00:35:48.955Z,2.97
2017-02-06T00:36:44.387Z,2.92
2017-02-06T00:37:29.354Z,2.87
2017-02-06T00:38:16.313Z,2.97
2017-02-06T00:38:59.448Z,2.87
2017-02-06T00:39:44.492Z,2.89
2017-02-06T00:40:27.518Z,2.98
2017-02-06T00:41:09.825Z,2.95
2017-02-06T00:41:50.307Z,2.93
2017-02-06T00:42:38.333Z,2.97
2017-02-06T00:43:24.307Z,3
2017-02-06T00:44:08.568Z,2.98
2017-02-06T00:44:50.844Z,2.95
2017-02-06T00:45:33.026Z,2.97
2017-02-06T00:46:17.970Z,3.03
2017-02-06T00:47:00.798Z,3.01
2017-02-06T00:47:44.914Z,3.01
2017-02-06T00:48:28.010Z,2.93
2017-02-06T00:49:14.334Z,2.97
2017-02-06T00:50:01.404Z,2.98
2017-02-06T00:50:44.344Z,2.9
2017-02-06T00:51:39.698Z,3
2017-02-06T00:52:39.801Z,2.89
2017-02-06T00:53:21.803Z,2.92
2017-02-06T00:54:04.910Z,2.98
2017-02-06T00:54:52.322Z,2.92
2017-02-06T00:55:38.330Z,2.92
2017-02-06T00:56:22.403Z,3
2017-02-06T00:57:06.848Z,2.95
2017-02-06T00:57:49.061Z,2.97
2017-02-06T00:58:30.179Z,2.95
2017-02-06T00:59:18.828Z,2.92
2017-02-06T01:00:05.893Z,2.95
2017-02-06T01:00:48.804Z,2.86
2017-02-06T01:01:30.935Z,2.98
2017-02-06T01:03:26.100Z,2.89
2017-02-06T01:04:06.970Z,2.89
2017-02-06T01:04:49.981Z,2.92
2017-02-06T01:05:41.069Z,2.92
2017-02-06T01:06:24.885Z,2.95
2017-02-06T01:07:15.882Z,2.97
2017-02-06T01:08:01.886Z,2.97
2017-02-06T01:08:55.883Z,2.93
2017-02-06T01:09:44.874Z,2.95
2017-02-06T01:10:28.370Z,2.89
2017-02-06T01:11:17.371Z,2.93
2017-02-06T01:11:58.628Z,3
2017-02-06T01:13:48.622Z,2.95
2017-02-06T01:14:29.915Z,2.95
2017-02-06T01:15:11.270Z,2.93
2017-02-06T01:15:54.023Z,2.89
2017-02-06T01:16:45.219Z,3.04
2017-02-06T01:17:36.132Z,2.97
2017-02-06T01:18:19.221Z,3.01
2017-02-06T01:19:02.303Z,2.98
2017-02-06T01:19:44.703Z,2.95
2017-02-06T01:20:26.699Z,2.86
2017-02-06T01:21:07.903Z,3
2017-02-06T01:21:52.059Z,2.89
2017-02-06T01:22:33.104Z,2.89
2017-02-06T01:23:16.129Z,2.97
2017-02-06T01:24:13.038Z,2.93
2017-02-06T01:24:55.298Z,2.89
2017-02-06T01:25:38.036Z,2.95
2017-02-06T01:26:24.028Z,2.93
2017-02-06T01:27:08.040Z,2.95
2017-02-06T01:27:55.022Z,2.92
2017-02-06T01:28:44.214Z,2.87
2017-02-06T01:29:27.177Z,2.95
2017-02-06T01:30:14.060Z,2.97
2017-02-06T01:30:55.044Z,2.92
2017-02-06T01:31:42.030Z,2.93
2017-02-06T01:32:25.003Z,2.98
2017-02-06T01:33:12.119Z,2.92
2017-02-06T01:33:53.397Z,2.86
2017-02-06T01:34:40.039Z,2.92
2017-02-06T01:35:23.237Z,2.98
2017-02-06T01:36:06.196Z,2.95
2017-02-06T01:36:53.022Z,2.9
2017-02-06T01:37:36.046Z,3.03
2017-02-06T01:38:18.003Z,3.01
2017-02-06T01:38:59.312Z,3
2017-02-06T01:39:42.025Z,2.98
2017-02-06T01:40:25.192Z,3.03
2017-02-06T01:41:07.716Z,2.98
2017-02-06T01:41:50.647Z,2.98
2017-02-06T01:42:33.525Z,3
2017-02-06T01:43:18.518Z,3.05
2017-02-06T01:44:00.788Z,3
2017-02-06T01:44:41.278Z,3
2017-02-06T01:45:21.747Z,3.01
2017-02-06T01:46:09.641Z,3
2017-02-06T01:46:56.608Z,2.95
2017-02-06T01:47:39.678Z,2.93
2017-02-06T01:48:24.609Z,2.9
2017-02-06T01:49:09.528Z,3
2017-02-06T01:49:57.679Z,3.04
2017-02-06T01:50:51.555Z,3.01
2017-02-06T01:51:32.594Z,3
2017-02-06T01:52:14.114Z,3
2017-02-06T01:53:00.032Z,2.98
2017-02-06T01:53:42.113Z,2.97
2017-02-06T01:54:30.144Z,2.95
2017-02-06T01:55:13.120Z,3.04
2017-02-06T01:56:01.151Z,3
2017-02-06T01:56:45.028Z,3.11
2017-02-06T01:57:28.021Z,3.05
2017-02-06T01:58:17.053Z,3.07
2017-02-06T01:58:59.006Z,3
2017-02-06T01:59:54.038Z,3.05
2017-02-06T02:00:40.027Z,3.07
2017-02-06T02:01:29.037Z,3
2017-02-06T02:02:19.029Z,3.05
2017-02-06T02:03:05.016Z,3.08
2017-02-06T02:03:51.017Z,3.07
2017-02-06T02:04:42.129Z,3.08
2017-02-06T02:05:32.016Z,3.1
2017-02-06T02:06:13.208Z,3.13
2017-02-06T02:06:53.678Z,3.11
2017-02-06T02:08:42.754Z,3.1
2017-02-06T02:09:24.168Z,3.08
2017-02-06T02:10:07.390Z,3.18
2017-02-06T02:10:51.244Z,3.14
2017-02-06T02:13:08.464Z,3.05
2017-02-06T02:13:56.260Z,3.13
2017-02-06T02:14:40.467Z,3.13
2017-02-06T02:15:22.272Z,3.13
2017-02-06T02:16:11.269Z,3.08
2017-02-06T02:16:52.410Z,3.08
2017-02-06T02:17:34.869Z,3.08
2017-02-06T02:18:18.819Z,3.14
2017-02-06T02:19:02.766Z,3.14
2017-02-06T02:19:43.253Z,3.14
2017-02-06T02:20:25.279Z,3.1
2017-02-06T02:21:07.255Z,3.18
2017-02-06T02:21:50.664Z,3.14
2017-02-06T02:22:35.940Z,3.05
2017-02-06T02:23:31.789Z,3.11
2017-02-06T02:24:19.787Z,3.13
2017-02-06T02:25:04.862Z,3.1
2017-02-06T02:25:46.962Z,3.03
2017-02-06T02:26:35.844Z,3.08
2017-02-06T02:27:18.785Z,3.1
2017-02-06T02:28:01.849Z,3.08
2017-02-06T02:28:42.327Z,3.13
2017-02-06T02:29:29.261Z,3.07
2017-02-06T02:30:09.769Z,3.08
2017-02-06T02:30:51.843Z,3.1
2017-02-06T02:31:32.399Z,3.05
2017-02-06T02:32:15.256Z,3.04
2017-02-06T02:33:00.260Z,3.07
2017-02-06T02:33:44.261Z,3.05
2017-02-06T02:34:29.292Z,3.07
2017-02-06T02:35:10.517Z,3.05
2017-02-06T02:35:54.282Z,3.14
2017-02-06T03:01:14.193Z,3.18
2017-02-06T03:04:35.726Z,3.21
2017-02-06T03:05:16.872Z,3.22
2017-02-06T03:05:59.592Z,3.16
2017-02-06T03:06:41.596Z,3.11
2017-02-06T03:07:32.593Z,3.19
2017-02-06T03:08:13.854Z,3.18
2017-02-06T03:08:57.082Z,3.22
2017-02-06T03:09:39.265Z,3.13
2017-02-06T03:10:19.743Z,3.18
2017-02-06T03:11:02.642Z,3.14
2017-02-06T03:11:51.575Z,3.22
2017-02-06T03:12:35.694Z,3.21
2017-02-06T03:13:24.793Z,3.22
2017-02-06T03:14:12.660Z,3.19
2017-02-06T03:14:56.682Z,3.16
2017-02-06T03:15:39.836Z,3.18
2017-02-06T03:16:22.589Z,3.18
2017-02-06T03:17:07.573Z,3.18
2017-02-06T03:18:00.598Z,3.23
2017-02-06T03:18:41.877Z,3.22
2017-02-06T03:19:25.111Z,3.23
2017-02-06T03:20:11.170Z,3.21
2017-02-06T03:23:39.440Z,3.14
2017-02-06T03:24:20.723Z,3.07
2017-02-06T03:25:01.232Z,3.1
2017-02-06T03:25:45.449Z,3.05
2017-02-06T03:26:26.871Z,3.07
2017-02-06T03:27:09.895Z,3.07
2017-02-06T03:27:55.251Z,3.13
2017-02-06T03:28:38.551Z,3.11
2017-02-06T03:29:35.405Z,3.14
2017-02-06T03:30:16.577Z,3.13
2017-02-06T03:31:00.523Z,3.04
2017-02-06T03:31:45.360Z,3.1
2017-02-06T03:32:29.575Z,3.1
2017-02-06T03:33:13.931Z,3.11
2017-02-06T03:33:58.014Z,3.1
2017-02-06T03:34:48.942Z,3.1
2017-02-06T03:35:34.878Z,3.18
2017-02-06T03:36:17.838Z,3.19
2017-02-06T03:37:02.017Z,3.14
2017-02-06T03:37:53.866Z,3.05
2017-02-06T03:38:36.008Z,3.14
2017-02-06T03:39:22.870Z,3.08
2017-02-06T03:40:14.838Z,3.1
2017-02-06T03:40:56.240Z,3.1
2017-02-06T03:41:38.646Z,3.05
2017-02-06T03:42:25.436Z,3.13
2017-02-06T03:43:10.478Z,3.08
2017-02-06T03:43:58.335Z,3.08
2017-02-06T03:44:42.363Z,3.13
2017-02-06T03:45:27.374Z,3.13
2017-02-06T03:46:10.368Z,3.13
2017-02-06T03:46:53.439Z,3.1
2017-02-06T03:47:35.417Z,3.14
2017-02-06T03:48:16.473Z,3.13
2017-02-06T03:48:59.534Z,3.07
2017-02-06T03:49:40.534Z,3.07
2017-02-06T03:50:22.665Z,3.13
2017-02-06T03:51:03.965Z,3.13
2017-02-06T03:52:54.756Z,3.11
2017-02-06T03:53:37.159Z,3.13
2017-02-06T03:54:23.169Z,3.13
2017-02-06T03:55:07.181Z,3.11
2017-02-06T03:55:52.365Z,3.13
2017-02-06T03:56:34.615Z,3.05
2017-02-06T03:57:19.695Z,3.14
2017-02-06T03:58:04.855Z,3.05
2017-02-06T03:58:48.742Z,3.1
2017-02-06T03:59:36.841Z,3.11
2017-02-06T04:00:19.764Z,3.1
2017-02-06T04:01:03.943Z,3.04
2017-02-06T04:01:45.201Z,3.08
2017-02-06T04:02:29.372Z,3.13
2017-02-06T04:03:16.433Z,3.08
2017-02-06T04:04:03.181Z,3.16
2017-02-06T04:04:45.187Z,3.08
2017-02-06T04:05:31.260Z,3.08
2017-02-06T04:06:15.458Z,3.1
2017-02-06T04:06:55.946Z,3.1
2017-02-06T04:07:37.690Z,3.04
2017-02-06T04:08:23.971Z,3.08
2017-02-06T04:09:06.679Z,3.08
2017-02-06T04:09:48.957Z,3.05
2017-02-06T04:10:29.457Z,3.1
2017-02-06T04:11:10.429Z,3.08
2017-02-06T04:11:53.613Z,3.11
2017-02-06T04:12:35.769Z,3.05
2017-02-06T04:13:22.846Z,3.03
2017-02-06T04:14:08.804Z,3.07
2017-02-06T04:14:50.092Z,3.03
2017-02-06T04:15:30.629Z,3.04
2017-02-06T04:16:11.140Z,3.07
2017-02-06T04:16:54.177Z,3.07
2017-02-06T04:17:39.160Z,3
2017-02-06T04:18:22.197Z,2.9
2017-02-06T04:19:03.350Z,2.97
2017-02-06T04:19:51.721Z,3.01
2017-02-06T04:20:38.690Z,2.98
2017-02-06T04:21:19.827Z,2.95
2017-02-06T04:22:02.943Z,2.9
2017-02-06T04:22:44.865Z,2.92
2017-02-06T04:23:26.677Z,3.03
2017-02-06T04:24:08.924Z,2.98
2017-02-06T04:24:51.870Z,3
2017-02-06T04:25:36.682Z,2.98
2017-02-06T04:26:23.681Z,2.92
2017-02-06T04:27:07.800Z,2.95
2017-02-06T04:27:51.701Z,2.95
2017-02-06T04:28:32.155Z,2.98
2017-02-06T04:29:16.169Z,2.92
2017-02-06T04:30:04.392Z,2.87
2017-02-06T04:30:45.383Z,2.98
2017-02-06T04:31:29.168Z,2.92
2017-02-06T04:32:11.275Z,2.9
2017-02-06T04:32:57.318Z,2.89
2017-02-06T04:33:37.817Z,2.89
2017-02-06T04:34:19.662Z,2.92
2017-02-06T04:35:04.677Z,2.93
2017-02-06T04:35:45.870Z,2.89
2017-02-06T04:36:28.847Z,2.89
2017-02-06T04:37:12.187Z,2.87
2017-02-06T04:37:52.682Z,2.83
2017-02-06T04:38:33.957Z,2.9
2017-02-06T04:39:15.372Z,2.87
2017-02-06T04:39:57.691Z,2.85
2017-02-06T04:40:41.694Z,2.86
2017-02-06T04:41:23.067Z,2.92
2017-02-06T04:42:05.357Z,2.82
2017-02-06T04:42:46.377Z,2.87
2017-02-06T04:43:29.177Z,2.9
2017-02-06T04:44:13.184Z,2.87
2017-02-06T04:44:55.175Z,2.92
2017-02-06T04:45:38.427Z,2.95
2017-02-06T04:46:20.768Z,2.95
2017-02-06T04:47:02.043Z,2.9
2017-02-06T04:47:43.246Z,2.83
2017-02-06T04:48:28.176Z,2.92
2017-02-06T04:49:10.562Z,2.85
2017-02-06T04:49:53.373Z,2.89
2017-02-06T04:50:40.171Z,2.86
2017-02-06T04:51:23.396Z,2.86
2017-02-06T04:52:04.685Z,2.86
2017-02-06T04:52:47.704Z,2.95
2017-02-06T04:53:29.879Z,2.86
2017-02-06T04:54:10.415Z,2.92
2017-02-06T04:54:52.466Z,2.92
2017-02-06T04:55:33.969Z,2.95
2017-02-06T04:56:18.192Z,2.87
2017-02-06T04:57:01.276Z,2.87
2017-02-06T04:57:42.322Z,2.9
2017-02-06T04:58:30.195Z,2.83
2017-02-06T04:59:16.183Z,2.9
2017-02-06T05:00:00.183Z,2.83
2017-02-06T05:00:40.628Z,2.93
2017-02-06T05:01:23.684Z,2.87
2017-02-06T05:02:05.747Z,2.93
2017-02-06T05:02:46.832Z,2.86
2017-02-06T05:03:28.773Z,2.89
2017-02-06T05:04:11.749Z,2.93
2017-02-06T05:06:01.926Z,2.92
2017-02-06T05:06:45.005Z,2.89
2017-02-06T05:07:37.994Z,2.89
2017-02-06T05:08:27.002Z,2.86
2017-02-06T05:09:10.157Z,2.86
2017-02-06T05:09:52.151Z,2.87
2017-02-06T05:10:40.119Z,2.86
2017-02-06T05:11:21.998Z,2.85
2017-02-06T05:12:02.473Z,2.85
2017-02-06T05:12:42.954Z,2.93
2017-02-06T05:13:23.508Z,2.89
2017-02-06T05:14:04.014Z,2.85
2017-02-06T05:14:44.489Z,2.77
2017-02-06T05:15:24.956Z,2.83
2017-02-06T05:16:05.541Z,2.75
2017-02-06T05:16:46.709Z,2.74
2017-02-06T05:17:27.393Z,2.77
2017-02-06T05:18:08.184Z,2.75
2017-02-06T05:18:48.864Z,2.74
2017-02-06T05:19:29.614Z,2.69
2017-02-06T05:20:10.138Z,2.71
2017-02-06T05:20:50.639Z,2.67
2017-02-06T05:21:31.688Z,2.77
2017-02-06T05:22:12.096Z,2.67
2017-02-06T05:22:52.614Z,2.67
2017-02-06T05:23:33.272Z,2.69
2017-02-06T05:24:13.835Z,2.68
2017-02-06T05:24:54.350Z,2.72
2017-02-06T05:25:34.881Z,2.67
2017-02-06T05:26:15.397Z,2.75
2017-02-06T05:26:55.862Z,2.62
2017-02-06T05:27:36.349Z,2.65
2017-02-06T05:28:16.893Z,2.56
2017-02-06T05:28:57.428Z,2.67
2017-02-06T05:29:38.017Z,2.57
2017-02-06T05:30:18.509Z,2.67
2017-02-06T05:30:59.012Z,2.67
2017-02-06T05:31:39.509Z,2.64
2017-02-06T05:32:19.976Z,2.6
2017-02-06T05:33:00.503Z,2.61
2017-02-06T05:33:40.997Z,2.56
2017-02-06T05:34:21.464Z,2.54
2017-02-06T05:35:01.913Z,2.64
2017-02-06T05:35:42.383Z,2.65
2017-02-06T05:36:22.881Z,2.6
2017-02-06T05:37:03.413Z,2.67
2017-02-06T05:37:43.881Z,2.6
2017-02-06T05:38:24.396Z,2.51
2017-02-06T05:39:04.854Z,2.53
2017-02-06T05:39:45.355Z,2.65
2017-02-06T05:40:25.845Z,2.54
2017-02-06T05:41:06.319Z,2.56
2017-02-06T05:41:46.809Z,2.61
2017-02-06T05:42:27.308Z,2.6
2017-02-06T05:43:07.841Z,2.6
2017-02-06T05:43:48.309Z,2.64
2017-02-06T05:44:28.762Z,2.56
2017-02-06T05:45:09.270Z,2.51
2017-02-06T05:45:49.760Z,2.6
2017-02-06T05:46:30.243Z,2.51
2017-02-06T05:47:10.729Z,2.54
2017-02-06T05:47:51.211Z,2.56
2017-02-06T05:48:31.687Z,2.61
2017-02-06T05:49:12.216Z,2.62
2017-02-06T05:49:52.747Z,2.51
2017-02-06T05:50:33.225Z,2.5
2017-02-06T05:51:13.706Z,2.47
2017-02-06T05:51:54.204Z,2.56
2017-02-06T05:52:34.747Z,2.53
2017-02-06T05:53:15.209Z,2.54
2017-02-06T05:53:55.729Z,2.5
2017-02-06T05:54:38.097Z,2.5
2017-02-06T05:55:18.576Z,2.51
2017-02-06T05:55:59.044Z,2.54
2017-02-06T05:56:39.520Z,2.51
2017-02-06T05:57:20.027Z,2.51
2017-02-06T05:58:00.526Z,2.51
2017-02-06T05:58:41.031Z,2.51
2017-02-06T05:59:21.478Z,2.53
2017-02-06T06:00:02.007Z,2.53
2017-02-06T06:00:42.440Z,2.53
2017-02-06T06:01:22.967Z,2.64
2017-02-06T06:02:03.439Z,2.61
2017-02-06T06:02:43.934Z,2.57
2017-02-06T06:03:24.393Z,2.51
2017-02-06T06:04:04.906Z,2.6
2017-02-06T06:04:45.392Z,2.49
2017-02-06T06:05:25.906Z,2.61
2017-02-06T06:06:06.350Z,2.6
2017-02-06T06:06:46.853Z,2.64
2017-02-06T06:07:27.374Z,2.56
2017-02-06T06:08:07.845Z,2.49
2017-02-06T06:08:48.335Z,2.54
2017-02-06T06:09:28.811Z,2.5
2017-02-06T06:10:09.276Z,2.5
2017-02-06T06:10:49.772Z,2.5
2017-02-06T06:11:30.265Z,2.51
2017-02-06T06:12:10.786Z,2.51
2017-02-06T06:12:51.282Z,2.62
2017-02-06T06:13:31.733Z,2.49
2017-02-06T06:14:12.216Z,2.51
2017-02-06T06:14:52.765Z,2.56
2017-02-06T06:15:33.248Z,2.53
2017-02-06T06:16:13.723Z,2.51
2017-02-06T06:16:54.249Z,2.49
2017-02-06T06:17:34.722Z,2.5
2017-02-06T06:18:15.197Z,2.49
2017-02-06T06:18:55.693Z,2.49
2017-02-06T06:19:36.186Z,2.54
2017-02-06T06:20:16.688Z,2.47
2017-02-06T06:20:57.182Z,2.51
2017-02-06T06:21:37.619Z,2.46
2017-02-06T06:22:18.099Z,2.46
2017-02-06T06:22:58.576Z,2.51
2017-02-06T06:23:39.123Z,2.44
2017-02-06T06:24:19.589Z,2.44
2017-02-06T06:25:00.058Z,2.44
2017-02-06T06:25:40.544Z,2.51
2017-02-06T06:26:21.068Z,2.42
2017-02-06T06:27:01.558Z,2.38
2017-02-06T06:27:42.059Z,2.47
2017-02-06T06:28:22.543Z,2.53
2017-02-06T06:29:03.029Z,2.51
2017-02-06T06:29:43.539Z,2.47
2017-02-06T06:30:24.019Z,2.42
2017-02-06T06:31:04.520Z,2.33
2017-02-06T06:31:44.998Z,2.36
2017-02-06T06:32:25.484Z,2.39
2017-02-06T06:33:05.968Z,2.36
2017-02-06T06:33:46.485Z,2.33
2017-02-06T06:34:27.013Z,2.36
2017-02-06T06:35:07.505Z,2.39
2017-02-06T06:35:48.038Z,2.39
2017-02-06T06:36:28.549Z,2.39
2017-02-06T06:37:09.094Z,2.35
2017-02-06T06:37:49.598Z,2.32
2017-02-06T06:38:30.074Z,2.39
2017-02-06T06:39:10.603Z,2.39
2017-02-06T06:39:51.119Z,2.35
2017-02-06T06:40:31.610Z,2.38
2017-02-06T06:41:12.145Z,2.25
2017-02-06T06:41:52.636Z,2.32
2017-02-06T06:42:33.117Z,2.35
2017-02-06T06:43:13.609Z,2.32
2017-02-06T06:43:54.110Z,2.32
2017-02-06T06:44:34.604Z,2.26
2017-02-06T06:45:15.051Z,2.32
2017-02-06T06:45:55.601Z,2.32
2017-02-06T06:46:36.123Z,2.29
2017-02-06T06:47:16.640Z,2.33
2017-02-06T06:47:57.135Z,2.35
2017-02-06T06:48:37.645Z,2.33
2017-02-06T06:49:18.123Z,2.33
2017-02-06T06:49:58.748Z,2.32
2017-02-06T06:50:39.252Z,2.25
2017-02-06T06:51:19.838Z,2.35
2017-02-06T06:52:00.319Z,2.32
2017-02-06T06:52:40.800Z,2.29
2017-02-06T06:53:21.364Z,2.26
2017-02-06T06:54:01.915Z,2.33
2017-02-06T06:54:42.402Z,2.29
2017-02-06T06:55:22.921Z,2.28
2017-02-06T06:56:03.484Z,2.42
2017-02-06T06:56:43.970Z,2.32
2017-02-06T06:57:24.505Z,2.29
2017-02-06T06:58:05.018Z,2.28
2017-02-06T06:58:45.491Z,2.28
2017-02-06T06:59:25.998Z,2.32
2017-02-06T07:00:06.524Z,2.24
2017-02-06T07:00:47.052Z,2.29
2017-02-06T07:01:27.568Z,2.31
2017-02-06T07:02:08.089Z,2.28
2017-02-06T07:02:48.692Z,2.26
2017-02-06T07:03:29.399Z,2.2
2017-02-06T07:04:10.018Z,2.32
2017-02-06T07:04:50.662Z,2.31
2017-02-06T07:05:31.329Z,2.29
2017-02-06T07:06:11.930Z,2.26
2017-02-06T07:06:52.429Z,2.31
2017-02-06T07:07:32.942Z,2.26
2017-02-06T07:08:13.443Z,2.29
2017-02-06T07:08:55.849Z,2.33
2017-02-06T07:09:36.398Z,2.26
2017-02-06T07:10:20.543Z,2.26
2017-02-06T07:11:01.032Z,2.26
2017-02-06T07:11:41.515Z,2.29
2017-02-06T07:13:34.883Z,2.33
2017-02-06T07:14:15.412Z,2.35
2017-02-06T07:14:55.861Z,2.33
2017-02-06T07:15:36.388Z,2.36
2017-02-06T07:16:16.854Z,2.31
2017-02-06T07:16:57.340Z,2.38
2017-02-06T07:17:37.875Z,2.44
2017-02-06T07:18:18.364Z,2.38
2017-02-06T07:18:58.828Z,2.35
2017-02-06T07:19:39.409Z,2.33
2017-02-06T07:20:19.956Z,2.33
2017-02-06T07:21:00.634Z,2.36
2017-02-06T07:21:42.142Z,2.49
2017-02-06T07:22:22.785Z,2.36
2017-02-06T07:23:04.149Z,2.46
2017-02-06T07:23:44.735Z,2.42
2017-02-06T07:24:25.521Z,2.38
2017-02-06T07:25:06.008Z,2.39
2017-02-06T07:25:46.517Z,2.36
2017-02-06T07:26:27.019Z,2.5
2017-02-06T07:27:07.665Z,2.35
2017-02-06T07:27:48.184Z,2.51
2017-02-06T07:28:28.644Z,2.5
2017-02-06T07:29:09.698Z,2.53
2017-02-06T07:29:50.544Z,2.51
2017-02-06T07:30:36.531Z,2.44
2017-02-06T07:31:22.773Z,2.5
2017-02-06T07:32:09.164Z,2.47
2017-02-06T07:32:52.802Z,2.5
2017-02-06T07:33:33.352Z,2.5
2017-02-06T07:34:14.460Z,2.44
2017-02-06T07:34:54.939Z,2.54
2017-02-06T07:35:35.455Z,2.49
2017-02-06T07:36:15.971Z,2.54
2017-02-06T07:36:56.465Z,2.49
2017-02-06T07:37:37.013Z,2.53
2017-02-06T07:38:17.579Z,2.51
2017-02-06T07:38:58.115Z,2.57
2017-02-06T07:39:38.695Z,2.54
2017-02-06T07:40:19.234Z,2.65
2017-02-06T07:40:59.788Z,2.57
2017-02-06T07:41:40.285Z,2.61
2017-02-06T07:42:20.814Z,2.62
2017-02-06T07:43:01.483Z,2.51
2017-02-06T07:43:42.658Z,2.51
2017-02-06T07:44:23.131Z,2.64
2017-02-06T07:45:04.508Z,2.6
2017-02-06T07:45:45.022Z,2.67
2017-02-06T07:46:36.889Z,2.65
2017-02-06T07:47:23.210Z,2.67
2017-02-06T07:48:10.056Z,2.69
2017-02-06T07:48:54.217Z,2.62
2017-02-06T07:49:34.723Z,2.62
2017-02-06T07:50:15.305Z,2.67
2017-02-06T07:50:55.752Z,2.77
2017-02-06T07:51:36.285Z,2.6
2017-02-06T07:52:17.479Z,2.72
2017-02-06T07:52:58.011Z,2.68
2017-02-06T07:55:12.624Z,2.71
2017-02-06T07:55:53.122Z,2.67
2017-02-06T07:56:33.642Z,2.65
2017-02-06T07:57:14.106Z,2.67
2017-02-06T07:57:54.640Z,2.64
2017-02-06T07:58:35.110Z,2.64
2017-02-06T07:59:15.636Z,2.67
2017-02-06T07:59:56.198Z,2.71
2017-02-06T08:00:36.685Z,2.68
2017-02-06T08:01:17.177Z,2.71
2017-02-06T08:01:58.246Z,2.69
2017-02-06T08:02:38.801Z,2.71
2017-02-06T08:03:19.527Z,2.72
2017-02-06T08:04:00.021Z,2.75
2017-02-06T08:04:40.684Z,2.79
2017-02-06T08:05:21.211Z,2.79
2017-02-06T08:06:01.815Z,2.75
2017-02-06T08:06:42.359Z,2.82
2017-02-06T08:07:22.940Z,2.93
2017-02-06T08:08:03.430Z,2.75
2017-02-06T08:08:43.893Z,2.85
2017-02-06T08:09:24.385Z,2.86
2017-02-06T08:10:06.415Z,2.86
2017-02-06T08:10:47.029Z,2.9
2017-02-06T08:11:27.708Z,2.89
2017-02-06T08:12:08.344Z,2.9
2017-02-06T08:12:48.812Z,2.87
2017-02-06T08:13:29.281Z,2.92
2017-02-06T08:14:10.288Z,2.89
2017-02-06T08:14:50.782Z,2.89
2017-02-06T08:15:33.033Z,2.93
2017-02-06T08:16:13.644Z,2.92
2017-02-06T08:16:54.208Z,2.9
2017-02-06T08:17:34.799Z,2.95
2017-02-06T08:18:15.333Z,2.87
2017-02-06T08:18:55.836Z,2.93
2017-02-06T08:19:36.347Z,2.95
2017-02-06T08:20:17.051Z,2.86
2017-02-06T08:20:57.712Z,3
2017-02-06T08:21:38.382Z,2.92
2017-02-06T08:22:19.246Z,3
2017-02-06T08:22:59.815Z,3.04
2017-02-06T08:23:40.420Z,3.03
2017-02-06T08:24:22.045Z,2.98
2017-02-06T08:25:02.875Z,3.01
2017-02-06T08:25:43.934Z,3.03
2017-02-06T08:26:24.967Z,3.04
2017-02-06T08:27:05.929Z,3.04
2017-02-06T08:27:47.081Z,3.07
2017-02-06T08:28:27.759Z,3.13
2017-02-06T08:29:09.551Z,3.08
2017-02-06T08:29:50.084Z,3.21
2017-02-06T08:30:30.602Z,3.11
2017-02-06T08:31:11.363Z,3.11
2017-02-06T08:31:52.033Z,3.1
2017-02-06T08:32:32.618Z,3.22
2017-02-06T08:33:13.296Z,3.21
2017-02-06T08:33:53.911Z,3.23
2017-02-06T08:34:34.394Z,3.21
2017-02-06T08:35:15.772Z,3.22
2017-02-06T08:35:56.319Z,3.28
2017-02-06T08:36:36.844Z,3.28
2017-02-06T08:37:17.348Z,3.29
2017-02-06T08:37:57.879Z,3.31
2017-02-06T08:38:40.029Z,3.29
2017-02-06T08:39:20.544Z,3.31
2017-02-06T08:40:02.643Z,3.32
2017-02-06T08:40:43.182Z,3.4
2017-02-06T08:41:23.826Z,3.37
2017-02-06T08:42:06.000Z,3.4
2017-02-06T08:42:46.536Z,3.47
2017-02-06T08:43:27.027Z,3.42
2017-02-06T08:44:09.155Z,3.42
2017-02-06T08:44:51.249Z,3.4
2017-02-06T08:45:35.920Z,3.42
2017-02-06T08:46:16.533Z,3.41
2017-02-06T08:46:57.054Z,3.48
2017-02-06T08:47:37.695Z,3.51
2017-02-06T08:48:18.419Z,3.53
2017-02-06T08:48:59.044Z,3.5
2017-02-06T08:49:39.553Z,3.47
2017-02-06T08:51:35.762Z,3.55
2017-02-06T08:52:24.266Z,3.44
2017-02-06T08:53:14.905Z,3.56
2017-02-06T08:53:59.175Z,3.53
2017-02-06T08:54:45.129Z,3.48
2017-02-06T08:55:25.709Z,3.59
2017-02-06T08:56:06.233Z,3.53
2017-02-06T08:56:46.943Z,3.48
2017-02-06T08:57:28.344Z,3.53
2017-02-06T08:58:13.479Z,3.58
2017-02-06T08:58:54.053Z,3.6
2017-02-06T08:59:34.551Z,3.48
2017-02-06T09:00:15.051Z,3.51
2017-02-06T09:00:55.568Z,3.59
2017-02-06T09:01:37.106Z,3.58
2017-02-06T09:02:17.685Z,3.51
2017-02-06T09:02:58.209Z,3.56
2017-02-06T09:03:40.528Z,3.51
2017-02-06T09:04:22.855Z,3.58
2017-02-06T09:05:04.845Z,3.6
2017-02-06T09:05:46.961Z,3.53
2017-02-06T09:06:27.472Z,3.56
2017-02-06T09:11:54.318Z,3.65
2017-02-06T09:12:34.949Z,3.65
2017-02-06T09:13:15.417Z,3.69
2017-02-06T09:13:56.644Z,3.66
2017-02-06T09:14:40.649Z,3.66
2017-02-06T09:15:22.092Z,3.7
2017-02-06T09:17:12.039Z,3.65
2017-02-06T09:18:03.007Z,3.69
2017-02-06T09:18:43.488Z,3.63
2017-02-06T09:19:24.016Z,3.6
2017-02-06T09:20:04.498Z,3.63
2017-02-06T09:20:44.990Z,3.68
2017-02-06T09:21:25.472Z,3.62
2017-02-06T09:22:05.948Z,3.69
2017-02-06T09:22:46.489Z,3.66
2017-02-06T09:23:27.004Z,3.63
2017-02-06T09:24:07.521Z,3.74
2017-02-06T09:24:48.027Z,3.76
2017-02-06T09:25:28.463Z,3.8
2017-02-06T09:26:08.969Z,3.78
2017-02-06T09:26:49.499Z,3.76
2017-02-06T09:27:29.982Z,3.74
2017-02-06T09:28:10.455Z,3.86
2017-02-06T09:28:50.946Z,3.8
2017-02-06T09:29:31.457Z,3.81
2017-02-06T09:30:12.088Z,3.7
2017-02-06T09:30:52.601Z,3.76
2017-02-06T09:31:33.120Z,3.77
2017-02-06T09:32:14.232Z,3.78
2017-02-06T09:32:55.671Z,3.81
2017-02-06T09:33:36.255Z,3.8
2017-02-06T09:34:16.913Z,3.86
2017-02-06T09:34:57.861Z,3.84
2017-02-06T09:35:39.271Z,3.84
2017-02-06T09:36:21.370Z,3.88
2017-02-06T09:37:02.551Z,3.87
2017-02-06T09:37:43.788Z,3.86
2017-02-06T09:38:24.328Z,3.87
2017-02-06T09:39:04.921Z,3.83
2017-02-06T09:39:46.030Z,3.87
2017-02-06T09:40:26.561Z,3.99
2017-02-06T09:41:07.105Z,3.92
2017-02-06T09:41:47.621Z,3.91
2017-02-06T09:42:28.135Z,3.91
2017-02-06T09:43:08.696Z,3.88
2017-02-06T09:43:49.235Z,3.84
2017-02-06T09:44:29.779Z,3.92
2017-02-06T09:45:11.262Z,3.96
2017-02-06T09:45:51.836Z,3.91
2017-02-06T09:46:32.398Z,3.96
2017-02-06T09:47:12.874Z,4.01
2017-02-06T09:47:53.365Z,4.01
2017-02-06T09:48:33.942Z,4.01
2017-02-06T09:49:15.028Z,4.01
2017-02-06T09:49:55.528Z,4.04
2017-02-06T09:50:36.127Z,4.02
2017-02-06T09:51:16.604Z,4.13
2017-02-06T09:51:57.178Z,4.08
2017-02-06T09:52:37.618Z,4.17
2017-02-06T09:53:18.149Z,4.13
2017-02-06T09:53:58.640Z,4.19
2017-02-06T09:54:39.189Z,4.14
2017-02-06T09:55:19.761Z,4.17
2017-02-06T09:56:00.282Z,4.16
2017-02-06T09:56:40.774Z,4.17
2017-02-06T09:57:21.281Z,4.24
2017-02-06T09:58:01.840Z,4.22
2017-02-06T09:58:42.315Z,4.14
2017-02-06T09:59:22.809Z,4.23
2017-02-06T10:00:04.974Z,4.14
2017-02-06T10:00:45.469Z,4.17
2017-02-06T10:01:25.991Z,4.16
2017-02-06T10:02:06.473Z,4.26
2017-02-06T10:02:48.090Z,4.3
2017-02-06T10:03:30.251Z,4.26
2017-02-06T10:04:12.576Z,4.24
2017-02-06T10:04:53.579Z,4.2
2017-02-06T10:05:34.119Z,4.24
2017-02-06T10:06:14.635Z,4.34
2017-02-06T10:06:57.896Z,4.37
2017-02-06T10:07:38.432Z,4.41
2017-02-06T10:08:19.074Z,4.4
2017-02-06T10:08:59.705Z,4.38
2017-02-06T10:09:40.156Z,4.38
2017-02-06T10:10:20.659Z,4.45
2017-02-06T10:11:01.187Z,4.5
2017-02-06T10:11:46.533Z,4.48
2017-02-06T10:12:26.932Z,4.52
2017-02-06T10:13:07.442Z,4.55
2017-02-06T10:13:47.964Z,4.62
2017-02-06T10:14:28.520Z,4.62
2017-02-06T10:15:09.149Z,4.7
2017-02-06T10:15:49.764Z,4.68
2017-02-06T10:16:30.214Z,4.71
2017-02-06T10:17:10.722Z,4.77
2017-02-06T10:17:51.282Z,4.84
2017-02-06T10:18:31.771Z,4.77
2017-02-06T10:19:12.308Z,4.75